Time;durP1;ratioP1;P1;durP2;ratioP2;P2;SDS_P1;SDS_P2;PMS_P1;PMS_P2;Temp;Humidity;BMP_temperature;BMP_pressure;BME280_temperature;BME280_humidity;BME280_pressure;Samples;Min_cycle;Max_cycle;Signal;HPM_P1;HPM_P2
2022/06/05 00:02:33;;;;;;;24.08;20.38;;;;;;;;;;5015767;28;20084;-75
2022/06/05 00:05:23;;;;;;;22.38;19.33;;;;;;;;;;4998699;28;20043;-75
2022/06/05 00:07:54;;;;;;;24.27;19.60;;;;;;;;;;5015957;28;20025;-75
2022/06/05 00:10:24;;;;;;;24.90;19.85;;;;;;;;;;5015830;28;20037;-75
2022/06/05 00:13:14;;;;;;;23.40;19.15;;;;;;;;;;5015609;28;20442;-74
2022/06/05 00:15:39;;;;;;;25.45;19.00;;;;;;;;;;5015894;28;20045;-75
2022/06/05 00:18:05;;;;;;;23.70;19.67;;;;;;;;;;4997970;28;20376;-74
2022/06/05 00:20:31;;;;;;;24.05;19.35;;;;;;;;;;5015547;28;20026;-76
2022/06/05 00:22:57;;;;;;;21.67;18.40;;;;;;;;;;4998067;28;20080;-74
2022/06/05 00:25:26;;;;;;;37.20;19.77;;;;;;;;;;5015448;28;20037;-75
2022/06/05 00:28:14;;;;;;;22.63;19.23;;;;;;;;;;5015358;28;20018;-74
2022/06/05 00:31:10;;;;;;;22.38;18.42;;;;;;;;;;5015581;28;20109;-75
2022/06/05 00:33:37;;;;;;;22.75;17.48;;;;;;;;;;5015099;28;20038;-75
2022/06/05 00:36:30;;;;;;;25.50;19.42;;;;;;;;;;5015125;28;20026;-75
2022/06/05 00:39:00;;;;;;;25.33;18.23;;;;;;;;;;5014779;28;20032;-75
2022/06/05 00:41:46;;;;;;;25.63;18.95;;;;;;;;;;5015026;28;20427;-75
2022/06/05 00:44:15;;;;;;;21.80;18.40;;;;;;;;;;5015118;28;20018;-75
2022/06/05 00:46:41;;;;;;;23.15;18.92;;;;;;;;;;5015216;28;20394;-75
2022/06/05 00:49:07;;;;;;;25.48;20.75;;;;;;;;;;5015094;28;20117;-74
2022/06/05 00:51:32;;;;;;;26.65;20.88;;;;;;;;;;5015215;28;20434;-75
2022/06/05 00:53:58;;;;;;;26.13;21.55;;;;;;;;;;5015099;28;20396;-75
2022/06/05 00:56:23;;;;;;;29.35;20.88;;;;;;;;;;5014793;28;20156;-75
2022/06/05 00:58:50;;;;;;;24.20;19.08;;;;;;;;;;5015093;28;20037;-74
2022/06/05 01:01:16;;;;;;;24.35;20.02;;;;;;;;;;5014727;28;20030;-75
2022/06/05 01:03:41;;;;;;;23.55;19.08;;;;;;;;;;5014773;28;20034;-74
2022/06/05 01:06:06;;;;;;;25.53;19.80;;;;;;;;;;4997129;28;20034;-75
2022/06/05 01:08:32;;;;;;;23.73;19.33;;;;;;;;;;5014673;28;20756;-75
2022/06/05 01:11:16;;;;;;;22.00;18.93;;;;;;;;;;5015195;28;20022;-75
2022/06/05 01:13:47;;;;;;;;;;;;;;;;;;5015237;28;20279;-75
2022/06/05 01:16:25;;;;;;;22.20;18.38;;;;;;;;;;5014768;28;19936;-74
2022/06/05 01:19:35;;;;;;;23.20;18.60;;;;;;;;;;5014793;28;20427;-75
2022/06/05 01:22:07;;;;;;;21.67;18.63;;;;;;;;;;5009437;28;20088;-75
2022/06/05 01:24:50;;;;;;;22.83;18.75;;;;;;;;;;5014333;28;20022;-75
2022/06/05 01:27:20;;;;;;;23.23;19.05;;;;;;;;;;5014395;28;20080;-76
2022/06/05 01:29:49;;;;;;;25.20;19.65;;;;;;;;;;5014503;28;20030;-75
2022/06/05 01:32:41;;;;;;;22.63;18.42;;;;;;;;;;4996450;28;20080;-75
2022/06/05 01:35:36;;;;;;;21.88;18.00;;;;;;;;;;4996552;28;20022;-75
2022/06/05 01:38:10;;;;;;;23.55;18.13;;;;;;;;;;5014213;28;20395;-76
2022/06/05 01:40:40;;;;;;;20.67;17.58;;;;;;;;;;5014378;28;20479;-75
2022/06/05 01:43:12;;;;;;;21.10;18.80;;;;;;;;;;4996423;28;20112;-74
2022/06/05 01:45:44;;;;;;;24.05;17.40;;;;;;;;;;5014331;28;20112;-75
2022/06/05 01:48:16;;;;;;;23.33;17.80;;;;;;;;;;5014288;28;20038;-75
2022/06/05 01:50:46;;;;;;;22.42;17.33;;;;;;;;;;5014043;28;20057;-75
2022/06/05 01:53:19;;;;;;;22.23;17.25;;;;;;;;;;5013668;28;20032;-75
2022/06/05 01:55:53;;;;;;;19.77;16.85;;;;;;;;;;4996270;28;20030;-75
2022/06/05 01:58:21;;;;;;;;;;;;;;;;;;5014546;28;20048;-74
2022/06/05 02:00:49;;;;;;;18.85;15.93;;;;;;;;;;5013667;28;19909;-75
2022/06/05 02:03:22;;;;;;;19.48;17.25;;;;;;;;;;5013641;28;20018;-75
2022/06/05 02:05:56;;;;;;;21.25;17.50;;;;;;;;;;4996023;28;20075;-75
2022/06/05 02:08:33;;;;;;;19.25;16.63;;;;;;;;;;4996069;28;20021;-75
2022/06/05 02:11:07;;;;;;;21.48;16.85;;;;;;;;;;5013653;28;20029;-75
2022/06/05 02:13:32;;;;;;;20.35;16.85;;;;;;;;;;5013869;28;20030;-75
2022/06/05 02:15:57;;;;;;;27.65;17.38;;;;;;;;;;5013501;28;20030;-76
2022/06/05 02:18:23;;;;;;;18.85;16.83;;;;;;;;;;5013747;28;20065;-75
2022/06/05 02:20:49;;;;;;;20.42;16.88;;;;;;;;;;4995933;28;20037;-76
2022/06/05 02:23:18;;;;;;;20.10;17.42;;;;;;;;;;5013355;28;20057;-76
2022/06/05 02:25:43;;;;;;;19.63;17.45;;;;;;;;;;4995840;28;20148;-75
2022/06/05 02:28:13;;;;;;;20.00;16.23;;;;;;;;;;5013448;28;20558;-75
2022/06/05 02:30:47;;;;;;;20.08;16.83;;;;;;;;;;5013349;28;20037;-74
2022/06/05 02:33:36;;;;;;;18.77;16.08;;;;;;;;;;5013145;28;20446;-76
2022/06/05 02:36:14;;;;;;;18.55;16.55;;;;;;;;;;4995730;28;20506;-75
2022/06/05 02:39:04;;;;;;;19.90;16.90;;;;;;;;;;4995764;28;20037;-75
2022/06/05 02:41:54;;;;;;;18.25;16.17;;;;;;;;;;5013414;28;20022;-75
2022/06/05 02:44:34;;;;;;;17.95;15.57;;;;;;;;;;5013341;28;20022;-75
2022/06/05 02:47:15;;;;;;;19.58;16.20;;;;;;;;;;5013256;28;20045;-75
2022/06/05 02:49:52;;;;;;;19.42;16.00;;;;;;;;;;5013516;28;20088;-75
2022/06/05 02:52:18;;;;;;;17.95;16.05;;;;;;;;;;4995574;28;20056;-75
2022/06/05 02:55:04;;;;;;;18.42;16.15;;;;;;;;;;4995429;28;20030;-76
2022/06/05 02:57:29;;;;;;;18.90;16.00;;;;;;;;;;5013176;28;20079;-75
2022/06/05 02:59:55;;;;;;;17.70;15.80;;;;;;;;;;5013373;28;20021;-75
2022/06/05 03:05:05;;;;;;;18.27;16.05;;;;;;;;;;5017045;28;20032;-75
2022/06/05 03:07:30;;;;;;;17.67;15.35;;;;;;;;;;5016764;28;20044;-76
2022/06/05 03:09:55;;;;;;;18.48;15.98;;;;;;;;;;4999311;28;20021;-75
2022/06/05 03:12:20;;;;;;;18.43;16.47;;;;;;;;;;5017041;28;20061;-75
2022/06/05 03:14:46;;;;;;;21.87;16.20;;;;;;;;;;5016726;28;20317;-75
2022/06/05 03:17:12;;;;;;;20.42;15.57;;;;;;;;;;5016754;28;20274;-75
2022/06/05 03:19:37;;;;;;;18.08;16.15;;;;;;;;;;5017012;28;20457;-75
2022/06/05 03:22:02;;;;;;;17.97;15.60;;;;;;;;;;5016667;28;20029;-75
2022/06/05 03:24:27;;;;;;;20.15;15.70;;;;;;;;;;5016637;28;20255;-75
2022/06/05 03:26:53;;;;;;;17.83;15.93;;;;;;;;;;5016601;28;20453;-75
2022/06/05 03:29:18;;;;;;;19.17;16.15;;;;;;;;;;5016623;28;20680;-76
2022/06/05 03:31:43;;;;;;;18.97;16.33;;;;;;;;;;5016284;28;20022;-75
2022/06/05 03:34:08;;;;;;;18.60;15.52;;;;;;;;;;5016355;28;20362;-75
2022/06/05 03:36:34;;;;;;;18.00;15.52;;;;;;;;;;5017465;28;20030;-75
2022/06/05 03:38:59;;;;;;;16.95;15.07;;;;;;;;;;5016882;28;20088;-75
2022/06/05 03:41:25;;;;;;;18.65;15.35;;;;;;;;;;5016193;28;20040;-75
2022/06/05 03:43:50;;;;;;;16.70;14.82;;;;;;;;;;4998631;28;20025;-75
2022/06/05 03:46:16;;;;;;;18.80;14.45;;;;;;;;;;5016569;28;20084;-74
2022/06/05 03:48:42;;;;;;;20.60;15.05;;;;;;;;;;5016459;28;20153;-75
2022/06/05 03:51:10;;;;;;;16.42;14.65;;;;;;;;;;5015990;28;20069;-76
2022/06/05 03:53:36;;;;;;;18.42;15.05;;;;;;;;;;5016218;28;20026;-75
2022/06/05 03:56:17;;;;;;;16.83;15.05;;;;;;;;;;5016245;28;20030;-76
2022/06/05 03:58:42;;;;;;;18.77;15.35;;;;;;;;;;5016168;28;20037;-74
2022/06/05 04:01:09;;;;;;;18.77;15.52;;;;;;;;;;5015787;28;20399;-75
2022/06/05 04:03:36;;;;;;;20.08;15.85;;;;;;;;;;5016103;28;20030;-74
2022/06/05 04:06:04;;;;;;;19.48;15.50;;;;;;;;;;5015851;28;20021;-76
2022/06/05 04:08:30;;;;;;;16.55;14.40;;;;;;;;;;5016042;28;20034;-75
2022/06/05 04:10:55;;;;;;;20.70;15.33;;;;;;;;;;5015978;28;20385;-74
2022/06/05 04:13:20;;;;;;;19.10;15.13;;;;;;;;;;5015508;28;20684;-76
2022/06/05 04:15:45;;;;;;;23.80;15.37;;;;;;;;;;5014829;28;20620;-74
2022/06/05 04:18:10;;;;;;;19.77;14.93;;;;;;;;;;5015870;28;20617;-75
2022/06/05 04:20:39;;;;;;;22.60;15.07;;;;;;;;;;5015822;28;20263;-74
2022/06/05 04:23:04;;;;;;;24.05;15.77;;;;;;;;;;5015464;28;20398;-75
2022/06/05 04:25:29;;;;;;;17.00;15.15;;;;;;;;;;5015491;28;20056;-75
2022/06/05 04:27:56;;;;;;;18.20;15.95;;;;;;;;;;5015735;28;20061;-75
2022/06/05 04:30:22;;;;;;;18.17;14.57;;;;;;;;;;5015634;28;20029;-75
2022/06/05 04:32:47;;;;;;;20.17;16.05;;;;;;;;;;5015189;28;20402;-75
2022/06/05 04:35:13;;;;;;;18.80;16.03;;;;;;;;;;5015495;28;20025;-74
2022/06/05 04:37:38;;;;;;;18.85;14.85;;;;;;;;;;5015282;28;20286;-75
2022/06/05 04:40:05;;;;;;;17.30;14.93;;;;;;;;;;5015196;28;20033;-75
2022/06/05 04:42:30;;;;;;;16.90;15.10;;;;;;;;;;5015076;28;20397;-75
2022/06/05 04:44:56;;;;;;;15.68;13.65;;;;;;;;;;5015411;28;20061;-76
2022/06/05 04:47:21;;;;;;;16.42;14.02;;;;;;;;;;5015006;28;20030;-75
2022/06/05 04:49:47;;;;;;;14.68;13.05;;;;;;;;;;5015290;28;20394;-75
2022/06/05 04:52:12;;;;;;;15.73;13.17;;;;;;;;;;5015741;28;20521;-75
2022/06/05 04:54:37;;;;;;;16.55;13.20;;;;;;;;;;5014849;28;20803;-76
2022/06/05 04:57:03;;;;;;;13.80;12.40;;;;;;;;;;5014962;28;20379;-75
2022/06/05 04:59:29;;;;;;;15.40;13.48;;;;;;;;;;5015170;28;20270;-76
2022/06/05 05:01:54;;;;;;;16.55;14.30;;;;;;;;;;5014741;28;20029;-75
2022/06/05 05:04:19;;;;;;;16.08;13.45;;;;;;;;;;5014774;28;20022;-75
2022/06/05 05:06:45;;;;;;;15.10;13.43;;;;;;;;;;4997160;28;20026;-75
2022/06/05 05:09:11;;;;;;;16.58;14.07;;;;;;;;;;4997046;28;20347;-75
2022/06/05 05:11:37;;;;;;;16.25;14.07;;;;;;;;;;5014497;28;20167;-75
2022/06/05 05:14:03;;;;;;;17.88;14.60;;;;;;;;;;4996926;28;20060;-75
2022/06/05 05:16:29;;;;;;;15.27;13.30;;;;;;;;;;5014468;28;20064;-75
2022/06/05 05:18:55;;;;;;;18.40;13.82;;;;;;;;;;5014360;28;20034;-76
2022/06/05 05:21:22;;;;;;;15.45;13.30;;;;;;;;;;5014332;28;20029;-75
2022/06/05 05:23:48;;;;;;;15.65;13.63;;;;;;;;;;5014610;28;20029;-74
2022/06/05 05:26:15;;;;;;;15.48;13.55;;;;;;;;;;4996647;28;20041;-75
2022/06/05 05:28:41;;;;;;;14.52;13.00;;;;;;;;;;5014370;28;20022;-75
2022/06/05 05:31:14;;;;;;;14.30;12.80;;;;;;;;;;4996582;28;20489;-74
2022/06/05 05:33:40;;;;;;;15.35;13.18;;;;;;;;;;5014132;28;20030;-75
2022/06/05 05:36:06;;;;;;;23.42;13.10;;;;;;;;;;5014226;28;20021;-75
2022/06/05 05:38:32;;;;;;;16.63;14.20;;;;;;;;;;5014152;28;20209;-75
2022/06/05 05:43:41;;;;;;;14.90;13.25;;;;;;;;;;5014206;28;20068;-74
2022/06/05 05:46:12;;;;;;;14.60;12.85;;;;;;;;;;4996400;28;20026;-74
2022/06/05 05:48:38;;;;;;;14.13;12.18;;;;;;;;;;5014702;28;20018;-75
2022/06/05 05:51:09;;;;;;;14.32;12.82;;;;;;;;;;4996277;28;20434;-74
2022/06/05 05:53:34;;;;;;;14.00;12.48;;;;;;;;;;5014109;28;20029;-75
2022/06/05 05:56:08;;;;;;;13.17;11.77;;;;;;;;;;5013855;28;20024;-75
2022/06/05 05:58:34;;;;;;;13.90;12.35;;;;;;;;;;5014003;28;20354;-74
2022/06/05 06:01:03;;;;;;;16.90;13.73;;;;;;;;;;4996862;28;20109;-75
2022/06/05 06:03:29;;;;;;;14.00;12.40;;;;;;;;;;4996159;28;20052;-75
2022/06/05 06:05:56;;;;;;;14.63;12.20;;;;;;;;;;4996401;28;20065;-75
2022/06/05 06:08:22;;;;;;;13.85;12.43;;;;;;;;;;5013673;28;20028;-75
2022/06/05 06:10:47;;;;;;;14.70;12.95;;;;;;;;;;5013882;28;20097;-75
2022/06/05 06:13:12;;;;;;;14.33;12.83;;;;;;;;;;5013629;28;20095;-75
2022/06/05 06:15:37;;;;;;;13.87;12.47;;;;;;;;;;5013851;28;20259;-74
2022/06/05 06:18:02;;;;;;;13.07;11.67;;;;;;;;;;5013556;28;20409;-75
2022/06/05 06:20:28;;;;;;;12.87;11.40;;;;;;;;;;5013621;28;20317;-75
2022/06/05 06:22:53;;;;;;;11.97;10.77;;;;;;;;;;5013501;28;20263;-74
2022/06/05 06:25:18;;;;;;;12.07;10.23;;;;;;;;;;5013647;28;20263;-75
2022/06/05 06:27:43;;;;;;;10.30;9.25;;;;;;;;;;5013600;28;20262;-76
2022/06/05 06:30:09;;;;;;;10.30;9.23;;;;;;;;;;5013579;28;20026;-75
2022/06/05 06:32:35;;;;;;;10.38;9.25;;;;;;;;;;5013081;28;20080;-75
2022/06/05 06:35:00;;;;;;;15.20;9.98;;;;;;;;;;5013792;28;20030;-76
2022/06/05 06:37:26;;;;;;;11.48;10.27;;;;;;;;;;5012888;28;20026;-75
2022/06/05 06:39:51;;;;;;;12.38;10.77;;;;;;;;;;5013347;28;20077;-74
2022/06/05 06:42:16;;;;;;;11.80;10.57;;;;;;;;;;5013491;28;20401;-75
2022/06/05 06:44:41;;;;;;;12.40;11.10;;;;;;;;;;5013240;28;20029;-76
2022/06/05 06:47:07;;;;;;;12.53;11.27;;;;;;;;;;5013173;28;20317;-75
2022/06/05 06:49:33;;;;;;;13.07;11.70;;;;;;;;;;5013110;28;20263;-76
2022/06/05 06:51:59;;;;;;;14.60;11.18;;;;;;;;;;5013367;28;20022;-75
2022/06/05 06:54:24;;;;;;;12.02;10.65;;;;;;;;;;5013235;28;20458;-76
2022/06/05 06:56:50;;;;;;;12.50;11.23;;;;;;;;;;5013162;28;20026;-75
2022/06/05 06:59:15;;;;;;;12.18;10.70;;;;;;;;;;5013368;28;20030;-75
2022/06/05 07:01:40;;;;;;;10.40;9.35;;;;;;;;;;4995681;28;20076;-75
2022/06/05 07:04:06;;;;;;;9.77;8.77;;;;;;;;;;5013065;28;20018;-76
2022/06/05 07:06:31;;;;;;;9.63;8.10;;;;;;;;;;5013236;28;20340;-75
2022/06/05 07:08:57;;;;;;;10.67;8.67;;;;;;;;;;5013042;28;20076;-75
2022/06/05 07:11:22;;;;;;;10.75;7.35;;;;;;;;;;5012901;28;20263;-75
2022/06/05 07:13:49;;;;;;;9.80;7.35;;;;;;;;;;5013223;28;20088;-75
2022/06/05 07:16:14;;;;;;;8.02;7.22;;;;;;;;;;5012801;28;20034;-75
2022/06/05 07:18:40;;;;;;;7.18;6.47;;;;;;;;;;4995736;28;20395;-76
2022/06/05 07:21:11;;;;;;;7.97;6.53;;;;;;;;;;5013093;28;20022;-76
2022/06/05 07:23:36;;;;;;;7.10;6.22;;;;;;;;;;5012949;28;20060;-76
2022/06/05 07:26:02;;;;;;;6.95;6.18;;;;;;;;;;5012833;28;20431;-76
2022/06/05 07:28:27;;;;;;;6.18;5.57;;;;;;;;;;5013095;28;20030;-75
2022/06/05 07:30:52;;;;;;;5.87;5.30;;;;;;;;;;5013066;28;20536;-76
2022/06/05 07:33:18;;;;;;;6.40;5.80;;;;;;;;;;5012487;28;20294;-76
2022/06/05 07:35:44;;;;;;;6.97;5.40;;;;;;;;;;5012764;28;20264;-76
2022/06/05 07:38:10;;;;;;;6.85;5.40;;;;;;;;;;5012848;28;20025;-76
2022/06/05 07:40:41;;;;;;;7.97;5.47;;;;;;;;;;5012897;28;20034;-75
2022/06/05 07:43:09;;;;;;;7.28;5.30;;;;;;;;;;4995127;28;20026;-77
2022/06/05 07:45:34;;;;;;;7.05;5.38;;;;;;;;;;5013242;28;20076;-75
2022/06/05 07:48:00;;;;;;;6.70;5.55;;;;;;;;;;5012805;28;20034;-75
2022/06/05 07:50:25;;;;;;;6.70;4.37;;;;;;;;;;5014820;28;20479;-75
2022/06/05 07:55:34;;;;;;;;;;;;;;;;;;5016752;28;20254;-74
2022/06/05 07:58:00;;;;;;;6.93;4.20;;;;;;;;;;5016316;28;19909;-75
2022/06/05 08:00:25;;;;;;;5.50;3.50;;;;;;;;;;5016004;28;20398;-75
2022/06/05 08:02:50;;;;;;;6.73;3.87;;;;;;;;;;5015863;28;20026;-76
2022/06/05 08:05:16;;;;;;;5.70;4.07;;;;;;;;;;5015921;28;20302;-76
2022/06/05 08:07:41;;;;;;;5.70;4.00;;;;;;;;;;5015819;28;20260;-74
2022/06/05 08:10:06;;;;;;;5.10;4.10;;;;;;;;;;5015836;28;20101;-75
2022/06/05 08:12:34;;;;;;;7.72;4.18;;;;;;;;;;5015617;28;20299;-75
2022/06/05 08:15:08;;;;;;;4.18;3.78;;;;;;;;;;5015658;28;20030;-75
2022/06/05 08:17:34;;;;;;;4.50;3.92;;;;;;;;;;4998220;28;20025;-74
2022/06/05 08:20:00;;;;;;;4.78;4.18;;;;;;;;;;5016322;28;20475;-72
2022/06/05 08:22:26;;;;;;;13.77;3.63;;;;;;;;;;5016413;28;20471;-73
2022/06/05 08:24:52;;;;;;;6.53;3.97;;;;;;;;;;5016540;28;20493;-72
2022/06/05 08:27:24;;;;;;;6.95;3.63;;;;;;;;;;5016608;28;20541;-72
2022/06/05 08:29:50;;;;;;;7.47;4.07;;;;;;;;;;5015587;28;20026;-74
2022/06/05 08:32:16;;;;;;;6.18;3.90;;;;;;;;;;5015353;28;20026;-72
2022/06/05 08:34:43;;;;;;;8.93;4.30;;;;;;;;;;4997798;28;20076;-72
2022/06/05 08:43:04;;;;;;;;;;;;;;;;;;5015732;28;20032;-73
2022/06/05 08:45:46;;;;;;;8.32;4.28;;;;;;;;;;4997614;28;19949;-74
2022/06/05 08:48:22;;;;;;;4.30;3.90;;;;;;;;;;5015160;28;20022;-74
2022/06/05 08:50:53;;;;;;;6.65;4.40;;;;;;;;;;5015350;28;20036;-73
2022/06/05 08:53:22;;;;;;;5.15;3.90;;;;;;;;;;5015100;28;20116;-74
2022/06/05 08:55:51;;;;;;;7.68;4.32;;;;;;;;;;5014943;28;20090;-74
2022/06/05 08:58:37;;;;;;;5.25;4.20;;;;;;;;;;5015215;28;20431;-75
2022/06/05 09:01:08;;;;;;;6.80;4.00;;;;;;;;;;5015357;28;20521;-74
2022/06/05 09:03:59;;;;;;;5.20;4.00;;;;;;;;;;5015283;28;20108;-75
2022/06/05 09:06:32;;;;;;;4.88;4.03;;;;;;;;;;5015318;28;20048;-76
2022/06/05 09:08:58;;;;;;;4.97;3.95;;;;;;;;;;5015023;28;20030;-76
2022/06/05 09:11:38;;;;;;;5.00;4.18;;;;;;;;;;5014962;28;20515;-76
2022/06/05 09:14:11;;;;;;;6.35;3.83;;;;;;;;;;4997245;28;20096;-76
2022/06/05 09:16:57;;;;;;;4.40;3.85;;;;;;;;;;5015126;28;20030;-76
2022/06/05 09:19:26;;;;;;;6.03;3.58;;;;;;;;;;5014705;28;20120;-76
2022/06/05 09:22:10;;;;;;;5.47;3.95;;;;;;;;;;4996857;28;20068;-76
2022/06/05 09:24:45;;;;;;;;;;;;;;;;;;5015251;28;20472;-77
2022/06/05 09:27:41;;;;;;;8.98;3.63;;;;;;;;;;5014808;28;19909;-76
2022/06/05 09:30:31;;;;;;;6.03;4.05;;;;;;;;;;4973970;28;20057;-77
2022/06/05 09:33:08;;;;;;;6.72;3.60;;;;;;;;;;5014277;28;20144;-75
2022/06/05 09:35:40;;;;;;;5.95;3.90;;;;;;;;;;5014679;28;20033;-75
2022/06/05 09:38:22;;;;;;;4.80;3.78;;;;;;;;;;5014748;28;20030;-76
2022/06/05 09:41:06;;;;;;;4.75;3.53;;;;;;;;;;5014443;28;20051;-75
2022/06/05 09:43:53;;;;;;;6.93;3.47;;;;;;;;;;5014589;28;20030;-76
2022/06/05 09:46:52;;;;;;;6.97;3.75;;;;;;;;;;4996683;28;20463;-76
2022/06/05 09:49:25;;;;;;;6.55;3.80;;;;;;;;;;5014513;28;20114;-76
2022/06/05 09:51:50;;;;;;;5.73;3.57;;;;;;;;;;5014467;28;20029;-76
2022/06/05 09:54:22;;;;;;;4.40;3.75;;;;;;;;;;5014136;28;20022;-77
2022/06/05 09:59:57;;;;;;;4.20;3.80;;;;;;;;;;5014411;28;20096;-76
2022/06/05 10:02:23;;;;;;;4.28;3.45;;;;;;;;;;5013790;28;20026;-74
2022/06/05 10:04:50;;;;;;;6.97;3.63;;;;;;;;;;5013855;28;20081;-76
2022/06/05 10:07:28;;;;;;;4.22;3.80;;;;;;;;;;5014321;28;20386;-75
2022/06/05 10:09:54;;;;;;;4.20;3.80;;;;;;;;;;5014001;28;20101;-76
2022/06/05 10:12:27;;;;;;;4.13;3.53;;;;;;;;;;4995485;28;20477;-77
2022/06/05 10:15:15;;;;;;;7.70;3.47;;;;;;;;;;4996141;28;20033;-76
2022/06/05 10:17:47;;;;;;;4.72;3.40;;;;;;;;;;5013633;28;20029;-77
2022/06/05 10:20:12;;;;;;;4.25;3.47;;;;;;;;;;4996110;28;20026;-76
2022/06/05 10:22:47;;;;;;;3.97;3.38;;;;;;;;;;5013514;28;20033;-77
2022/06/05 10:25:37;;;;;;;3.83;3.20;;;;;;;;;;4995765;28;20470;-76
2022/06/05 10:28:14;;;;;;;5.40;3.88;;;;;;;;;;5013574;28;20113;-74
2022/06/05 10:31:03;;;;;;;7.47;3.20;;;;;;;;;;5014148;28;20025;-76
2022/06/05 10:33:53;;;;;;;3.80;3.40;;;;;;;;;;5013122;28;20505;-75
2022/06/05 10:36:22;;;;;;;4.70;3.42;;;;;;;;;;5013731;28;20476;-77
2022/06/05 10:39:12;;;;;;;7.18;3.97;;;;;;;;;;5013559;28;20036;-75
2022/06/05 10:41:47;;;;;;;4.28;3.38;;;;;;;;;;5013815;28;20026;-76
2022/06/05 10:44:25;;;;;;;3.83;2.88;;;;;;;;;;5013326;28;20033;-76
2022/06/05 10:47:14;;;;;;;3.35;3.00;;;;;;;;;;5013468;28;20406;-77
2022/06/05 10:49:58;;;;;;;3.47;3.17;;;;;;;;;;5014109;28;20113;-76
2022/06/05 10:52:34;;;;;;;3.60;3.20;;;;;;;;;;5013775;28;20569;-75
2022/06/05 10:55:19;;;;;;;4.35;3.00;;;;;;;;;;5013532;28;20057;-75
2022/06/05 10:58:07;;;;;;;3.50;3.08;;;;;;;;;;5013303;28;20029;-76
2022/06/05 11:00:56;;;;;;;3.58;3.10;;;;;;;;;;5013067;28;20030;-76
2022/06/05 11:03:56;;;;;;;3.75;3.22;;;;;;;;;;5013017;28;20079;-76
2022/06/05 11:06:58;;;;;;;3.97;3.33;;;;;;;;;;4995555;28;20029;-75
2022/06/05 11:09:46;;;;;;;7.63;3.13;;;;;;;;;;5013139;28;20030;-76
2022/06/05 11:15:33;;;;;;;3.97;3.20;;;;;;;;;;5013004;28;20129;-76
2022/06/05 11:18:21;;;;;;;5.13;3.40;;;;;;;;;;5013336;28;20030;-76
2022/06/05 11:21:16;;;;;;;4.05;3.58;;;;;;;;;;5013206;28;20018;-75
2022/06/05 11:23:42;;;;;;;4.70;3.15;;;;;;;;;;5011580;28;20034;-76
2022/06/05 11:26:28;;;;;;;3.25;2.83;;;;;;;;;;5016530;28;20022;-75
2022/06/05 11:29:18;;;;;;;3.65;3.08;;;;;;;;;;5016597;28;20112;-75
2022/06/05 11:32:13;;;;;;;3.20;2.85;;;;;;;;;;5016279;28;20053;-76
2022/06/05 11:34:57;;;;;;;3.55;2.80;;;;;;;;;;4998830;28;20022;-76
2022/06/05 11:37:38;;;;;;;5.03;3.13;;;;;;;;;;5001049;28;20061;-75
2022/06/05 11:40:34;;;;;;;3.35;2.75;;;;;;;;;;5016982;28;20034;-76
2022/06/05 11:43:33;;;;;;;5.38;2.95;;;;;;;;;;5016802;28;20022;-74
2022/06/05 11:46:09;;;;;;;4.45;3.25;;;;;;;;;;5016552;28;20048;-76
2022/06/05 11:48:44;;;;;;;4.28;2.90;;;;;;;;;;4999178;28;20397;-75
2022/06/05 11:51:23;;;;;;;5.53;3.03;;;;;;;;;;5016669;28;20041;-76
2022/06/05 11:54:10;;;;;;;5.55;3.00;;;;;;;;;;5016349;28;20079;-75
2022/06/05 11:56:55;;;;;;;4.07;3.30;;;;;;;;;;4999047;28;20462;-76
2022/06/05 11:59:40;;;;;;;3.78;3.08;;;;;;;;;;5016725;28;20483;-76
2022/06/05 12:02:07;;;;;;;3.10;2.80;;;;;;;;;;5015999;28;20117;-76
2022/06/05 12:05:02;;;;;;;5.75;2.92;;;;;;;;;;5016396;28;20098;-76
2022/06/05 12:07:28;;;;;;;4.85;3.03;;;;;;;;;;5015910;28;20029;-76
2022/06/05 12:09:59;;;;;;;4.45;3.00;;;;;;;;;;5016038;28;20029;-75
2022/06/05 12:12:48;;;;;;;4.22;2.85;;;;;;;;;;4997996;28;20026;-75
2022/06/05 12:15:23;;;;;;;3.58;2.92;;;;;;;;;;5015505;28;20026;-77
2022/06/05 12:18:03;;;;;;;6.13;2.90;;;;;;;;;;5015885;28;20030;-76
2022/06/05 12:21:07;;;;;;;3.70;2.80;;;;;;;;;;5015854;28;20033;-75
2022/06/05 12:24:03;;;;;;;5.70;3.17;;;;;;;;;;5000666;28;20046;-75
2022/06/05 12:26:45;;;;;;;6.13;3.55;;;;;;;;;;5015409;28;20061;-77
2022/06/05 12:29:28;;;;;;;4.47;3.30;;;;;;;;;;5015664;28;20058;-76
2022/06/05 12:32:03;;;;;;;3.67;3.10;;;;;;;;;;5015411;28;20117;-76
2022/06/05 12:34:39;;;;;;;3.33;2.60;;;;;;;;;;4997898;28;20105;-76
2022/06/05 12:37:22;;;;;;;3.67;2.97;;;;;;;;;;5014780;28;20061;-76
2022/06/05 12:39:52;;;;;;;3.00;2.70;;;;;;;;;;5015313;28;20026;-76
2022/06/05 12:42:30;;;;;;;7.90;2.88;;;;;;;;;;5015007;28;20050;-76
2022/06/05 12:45:03;;;;;;;6.70;3.10;;;;;;;;;;5015130;28;20026;-76
2022/06/05 12:47:36;;;;;;;;;;;;;;;;;;5015713;28;20022;-76
2022/06/05 12:50:20;;;;;;;4.53;3.10;;;;;;;;;;5014999;28;19917;-76
2022/06/05 12:52:59;;;;;;;4.15;2.90;;;;;;;;;;5015738;28;20064;-76
2022/06/05 12:55:41;;;;;;;3.78;2.95;;;;;;;;;;4997172;28;20021;-76
2022/06/05 12:58:12;;;;;;;3.80;2.67;;;;;;;;;;5015145;28;20053;-76
2022/06/05 13:00:56;;;;;;;5.28;3.05;;;;;;;;;;5015045;28;20080;-77
2022/06/05 13:03:29;;;;;;;6.13;2.80;;;;;;;;;;4997232;28;20025;-76
2022/06/05 13:06:14;;;;;;;3.10;2.55;;;;;;;;;;4997152;28;20060;-76
2022/06/05 13:08:41;;;;;;;3.47;2.60;;;;;;;;;;5014600;28;20044;-75
2022/06/05 13:11:24;;;;;;;2.88;2.40;;;;;;;;;;5014507;28;20061;-75
2022/06/05 13:13:58;;;;;;;3.40;2.50;;;;;;;;;;5014774;28;20081;-76
2022/06/05 13:16:56;;;;;;;4.35;2.40;;;;;;;;;;5014648;28;20787;-77
2022/06/05 13:19:37;;;;;;;3.97;2.50;;;;;;;;;;4929700;28;20041;-76
2022/06/05 13:22:25;;;;;;;3.08;2.65;;;;;;;;;;5014570;28;20105;-77
2022/06/05 13:24:57;;;;;;;2.70;2.50;;;;;;;;;;5014519;28;20053;-76
2022/06/05 13:27:46;;;;;;;2.70;2.30;;;;;;;;;;5014303;28;20030;-76
2022/06/05 13:30:19;;;;;;;3.38;2.55;;;;;;;;;;5014548;28;20030;-76
2022/06/05 13:32:48;;;;;;;3.60;2.45;;;;;;;;;;5013984;28;20084;-76
2022/06/05 13:35:22;;;;;;;2.75;2.10;;;;;;;;;;4996648;28;20495;-75
2022/06/05 13:37:53;;;;;;;3.05;2.40;;;;;;;;;;5014432;28;20065;-75
2022/06/05 13:40:47;;;;;;;4.35;2.58;;;;;;;;;;5014098;28;20037;-75
2022/06/05 13:43:30;;;;;;;3.00;2.50;;;;;;;;;;5014140;28;20045;-76
2022/06/05 13:46:11;;;;;;;4.43;2.50;;;;;;;;;;5014485;28;20467;-77
2022/06/05 13:48:51;;;;;;;3.00;2.40;;;;;;;;;;5013343;28;20041;-77
2022/06/05 13:51:25;;;;;;;2.80;2.30;;;;;;;;;;5013888;28;20026;-76
2022/06/05 13:54:02;;;;;;;2.53;2.33;;;;;;;;;;5014121;28;20494;-76
2022/06/05 13:56:33;;;;;;;2.47;2.22;;;;;;;;;;5014066;28;20113;-76
2022/06/05 13:59:06;;;;;;;3.13;2.33;;;;;;;;;;5014050;28;20022;-76
2022/06/05 14:01:36;;;;;;;2.45;2.22;;;;;;;;;;5013934;28;20034;-76
2022/06/05 14:04:22;;;;;;;2.40;2.08;;;;;;;;;;5013925;28;20398;-76
2022/06/05 14:06:50;;;;;;;3.13;2.40;;;;;;;;;;4996040;28;20022;-76
2022/06/05 14:09:42;;;;;;;5.10;2.30;;;;;;;;;;5013582;28;20030;-75
2022/06/05 14:12:20;;;;;;;5.25;2.17;;;;;;;;;;5014362;28;20072;-75
2022/06/05 14:14:46;;;;;;;5.38;2.45;;;;;;;;;;4995772;28;20463;-76
2022/06/05 14:17:25;;;;;;;3.22;2.08;;;;;;;;;;4995823;28;20124;-75
2022/06/05 14:20:18;;;;;;;2.70;2.20;;;;;;;;;;5013564;28;20494;-74
2022/06/05 14:22:51;;;;;;;3.00;2.55;;;;;;;;;;5003579;28;20044;-76
2022/06/05 14:25:19;;;;;;;4.47;2.58;;;;;;;;;;5013716;28;20022;-75
2022/06/05 14:27:45;;;;;;;2.55;2.17;;;;;;;;;;5013619;28;20033;-76
2022/06/05 14:30:33;;;;;;;5.13;2.22;;;;;;;;;;5013312;28;20394;-76
2022/06/05 14:33:05;;;;;;;2.70;2.30;;;;;;;;;;4995388;28;20030;-76
2022/06/05 14:35:34;;;;;;;2.90;2.00;;;;;;;;;;4995414;28;20022;-75
2022/06/05 14:38:14;;;;;;;2.83;2.28;;;;;;;;;;5013304;28;20069;-75
2022/06/05 14:40:52;;;;;;;2.47;2.22;;;;;;;;;;5013237;28;20022;-76
2022/06/05 14:43:28;;;;;;;4.97;2.30;;;;;;;;;;5013162;28;20404;-76
2022/06/05 14:46:21;;;;;;;3.53;2.65;;;;;;;;;;5013389;28;20368;-76
2022/06/05 14:48:55;;;;;;;4.07;2.40;;;;;;;;;;5013068;28;20418;-77
2022/06/05 14:51:34;;;;;;;3.15;2.40;;;;;;;;;;5013429;28;20026;-76
2022/06/05 14:54:18;;;;;;;2.95;2.30;;;;;;;;;;5013036;28;20568;-76
2022/06/05 14:59:56;;;;;;;3.75;2.10;;;;;;;;;;5016220;28;20072;-76
2022/06/05 15:02:44;;;;;;;4.35;2.40;;;;;;;;;;5017173;28;20048;-76
2022/06/05 15:05:18;;;;;;;2.85;2.05;;;;;;;;;;5017138;28;20033;-77
2022/06/05 15:08:09;;;;;;;2.25;2.05;;;;;;;;;;5017471;28;20025;-76
2022/06/05 15:10:47;;;;;;;2.38;2.10;;;;;;;;;;5016778;28;20029;-77
2022/06/05 15:13:26;;;;;;;3.53;2.00;;;;;;;;;;5016634;28;20076;-76
2022/06/05 15:16:09;;;;;;;2.22;2.03;;;;;;;;;;5016992;28;20029;-77
2022/06/05 15:18:35;;;;;;;9.07;2.22;;;;;;;;;;5017062;28;20029;-76
2022/06/05 15:21:24;;;;;;;4.50;2.20;;;;;;;;;;5016815;28;20044;-76
2022/06/05 15:23:57;;;;;;;4.00;2.15;;;;;;;;;;4999050;28;20018;-76
2022/06/05 15:26:48;;;;;;;2.85;2.13;;;;;;;;;;5017176;28;20105;-75
2022/06/05 15:29:28;;;;;;;5.80;2.30;;;;;;;;;;4998950;28;20028;-75
2022/06/05 15:32:22;;;;;;;3.30;2.25;;;;;;;;;;5016386;28;20037;-77
2022/06/05 15:34:59;;;;;;;3.10;2.08;;;;;;;;;;5016318;28;20054;-77